sensor_id;sensor_type;location;lat;lon;timestamp;temperature;humidity
46562;DHT22;32289;42.688;23.330;2023-07-20T00:01:27;23.50;75.10
46562;DHT22;32289;42.688;23.330;2023-07-20T00:05:08;23.50;74.40
46562;DHT22;32289;42.688;23.330;2023-07-20T00:08:49;23.50;74.60
46562;DHT22;32289;42.688;23.330;2023-07-20T00:12:29;23.10;76.70
46562;DHT22;32289;42.688;23.330;2023-07-20T00:16:10;23.30;76.20
46562;DHT22;32289;42.688;23.330;2023-07-20T00:19:51;23.30;76.00
46562;DHT22;32289;42.688;23.330;2023-07-20T00:23:32;23.30;75.60
46562;DHT22;32289;42.688;23.330;2023-07-20T00:27:12;23.30;76.20
46562;DHT22;32289;42.688;23.330;2023-07-20T00:30:53;23.40;76.60
46562;DHT22;32289;42.688;23.330;2023-07-20T00:34:34;23.40;74.80
46562;DHT22;32289;42.688;23.330;2023-07-20T00:38:15;22.90;76.60
46562;DHT22;32289;42.688;23.330;2023-07-20T00:41:55;22.80;76.80
46562;DHT22;32289;42.688;23.330;2023-07-20T00:45:36;23.10;78.10
46562;DHT22;32289;42.688;23.330;2023-07-20T00:49:17;22.90;80.00
46562;DHT22;32289;42.688;23.330;2023-07-20T00:53:03;22.40;83.70
46562;DHT22;32289;42.688;23.330;2023-07-20T00:56:45;22.30;85.90
46562;DHT22;32289;42.688;23.330;2023-07-20T01:00:26;22.10;88.50
46562;DHT22;32289;42.688;23.330;2023-07-20T01:04:08;21.90;90.50
46562;DHT22;32289;42.688;23.330;2023-07-20T01:08:17;21.90;90.50
46562;DHT22;32289;42.688;23.330;2023-07-20T01:12:24;21.80;90.90
46562;DHT22;32289;42.688;23.330;2023-07-20T01:16:06;22.00;90.60
46562;DHT22;32289;42.688;23.330;2023-07-20T01:19:47;21.90;90.90
46562;DHT22;32289;42.688;23.330;2023-07-20T01:23:48;21.70;91.30
46562;DHT22;32289;42.688;23.330;2023-07-20T01:31:53;21.10;93.10
46562;DHT22;32289;42.688;23.330;2023-07-20T01:35:36;21.50;92.70
46562;DHT22;32289;42.688;23.330;2023-07-20T01:39:20;21.50;92.40
46562;DHT22;32289;42.688;23.330;2023-07-20T01:43:02;21.70;91.60
46562;DHT22;32289;42.688;23.330;2023-07-20T01:46:43;21.80;91.20
46562;DHT22;32289;42.688;23.330;2023-07-20T01:50:24;21.60;92.10
46562;DHT22;32289;42.688;23.330;2023-07-20T01:54:04;21.70;92.70
46562;DHT22;32289;42.688;23.330;2023-07-20T01:57:45;21.70;92.20
46562;DHT22;32289;42.688;23.330;2023-07-20T02:01:26;21.70;92.00
46562;DHT22;32289;42.688;23.330;2023-07-20T02:05:09;21.60;93.30
46562;DHT22;32289;42.688;23.330;2023-07-20T02:08:49;21.50;92.70
46562;DHT22;32289;42.688;23.330;2023-07-20T02:12:30;21.40;93.50
46562;DHT22;32289;42.688;23.330;2023-07-20T02:16:11;21.40;92.50
46562;DHT22;32289;42.688;23.330;2023-07-20T02:19:56;21.60;93.50
46562;DHT22;32289;42.688;23.330;2023-07-20T02:23:37;21.40;93.30
46562;DHT22;32289;42.688;23.330;2023-07-20T02:27:18;21.40;93.80
46562;DHT22;32289;42.688;23.330;2023-07-20T02:30:59;21.30;93.80
46562;DHT22;32289;42.688;23.330;2023-07-20T02:34:41;21.40;94.20
46562;DHT22;32289;42.688;23.330;2023-07-20T02:38:21;21.50;94.00
46562;DHT22;32289;42.688;23.330;2023-07-20T02:42:02;21.40;94.70
46562;DHT22;32289;42.688;23.330;2023-07-20T02:45:43;21.40;95.20
46562;DHT22;32289;42.688;23.330;2023-07-20T02:49:24;21.20;94.20
46562;DHT22;32289;42.688;23.330;2023-07-20T02:53:05;21.20;94.00
46562;DHT22;32289;42.688;23.330;2023-07-20T02:56:46;21.20;95.50
46562;DHT22;32289;42.688;23.330;2023-07-20T03:00:26;21.10;95.00
46562;DHT22;32289;42.688;23.330;2023-07-20T03:04:08;21.20;96.60
46562;DHT22;32289;42.688;23.330;2023-07-20T03:07:51;21.40;95.70
46562;DHT22;32289;42.688;23.330;2023-07-20T03:11:32;21.30;95.60
46562;DHT22;32289;42.688;23.330;2023-07-20T03:15:14;21.10;96.50
46562;DHT22;32289;42.688;23.330;2023-07-20T03:18:55;21.10;96.80
46562;DHT22;32289;42.688;23.330;2023-07-20T03:22:35;21.00;96.30
46562;DHT22;32289;42.688;23.330;2023-07-20T03:26:16;21.10;97.20
46562;DHT22;32289;42.688;23.330;2023-07-20T03:29:57;21.10;96.60
46562;DHT22;32289;42.688;23.330;2023-07-20T03:33:37;21.00;96.20
46562;DHT22;32289;42.688;23.330;2023-07-20T03:37:18;21.00;96.60
46562;DHT22;32289;42.688;23.330;2023-07-20T03:41:00;21.00;95.90
46562;DHT22;32289;42.688;23.330;2023-07-20T03:44:40;21.10;95.60
46562;DHT22;32289;42.688;23.330;2023-07-20T03:48:22;21.00;95.90
46562;DHT22;32289;42.688;23.330;2023-07-20T03:52:03;21.20;94.90
46562;DHT22;32289;42.688;23.330;2023-07-20T03:55:45;21.40;94.30
46562;DHT22;32289;42.688;23.330;2023-07-20T03:59:26;21.40;93.80
46562;DHT22;32289;42.688;23.330;2023-07-20T04:03:07;21.30;94.40
46562;DHT22;32289;42.688;23.330;2023-07-20T04:06:48;22.70;90.70
46562;DHT22;32289;42.688;23.330;2023-07-20T04:10:29;23.40;85.90
46562;DHT22;32289;42.688;23.330;2023-07-20T04:14:10;23.30;86.90
46562;DHT22;32289;42.688;23.330;2023-07-20T04:17:50;22.70;90.00
46562;DHT22;32289;42.688;23.330;2023-07-20T04:21:31;23.00;87.50
46562;DHT22;32289;42.688;23.330;2023-07-20T04:25:12;23.60;84.50
46562;DHT22;32289;42.688;23.330;2023-07-20T04:28:52;23.60;83.90
46562;DHT22;32289;42.688;23.330;2023-07-20T04:32:33;23.70;82.60
46562;DHT22;32289;42.688;23.330;2023-07-20T04:36:14;24.50;79.50
46562;DHT22;32289;42.688;23.330;2023-07-20T04:39:56;24.40;81.00
46562;DHT22;32289;42.688;23.330;2023-07-20T04:43:41;24.70;80.30
46562;DHT22;32289;42.688;23.330;2023-07-20T04:47:23;24.40;79.90
46562;DHT22;32289;42.688;23.330;2023-07-20T04:51:03;24.00;82.50
46562;DHT22;32289;42.688;23.330;2023-07-20T04:54:44;24.10;81.40
46562;DHT22;32289;42.688;23.330;2023-07-20T04:58:25;24.50;79.40
46562;DHT22;32289;42.688;23.330;2023-07-20T05:02:05;25.10;76.50
46562;DHT22;32289;42.688;23.330;2023-07-20T05:05:47;26.40;71.80
46562;DHT22;32289;42.688;23.330;2023-07-20T05:09:28;27.00;68.10
46562;DHT22;32289;42.688;23.330;2023-07-20T05:13:09;27.70;67.50
46562;DHT22;32289;42.688;23.330;2023-07-20T05:16:50;26.90;68.50
46562;DHT22;32289;42.688;23.330;2023-07-20T05:20:31;27.40;66.70
46562;DHT22;32289;42.688;23.330;2023-07-20T05:24:13;26.90;67.20
46562;DHT22;32289;42.688;23.330;2023-07-20T05:27:54;27.90;65.10
46562;DHT22;32289;42.688;23.330;2023-07-20T05:31:35;27.80;64.70
46562;DHT22;32289;42.688;23.330;2023-07-20T05:35:17;27.10;64.50
46562;DHT22;32289;42.688;23.330;2023-07-20T05:38:58;28.70;62.20
46562;DHT22;32289;42.688;23.330;2023-07-20T05:42:39;29.30;59.70
46562;DHT22;32289;42.688;23.330;2023-07-20T05:46:20;28.90;59.80
46562;DHT22;32289;42.688;23.330;2023-07-20T05:50:01;28.10;61.90
46562;DHT22;32289;42.688;23.330;2023-07-20T05:53:41;28.30;63.20
46562;DHT22;32289;42.688;23.330;2023-07-20T05:57:22;28.20;62.50
46562;DHT22;32289;42.688;23.330;2023-07-20T06:01:03;27.30;65.00
46562;DHT22;32289;42.688;23.330;2023-07-20T06:04:46;27.70;63.80
46562;DHT22;32289;42.688;23.330;2023-07-20T06:08:28;29.00;63.20
46562;DHT22;32289;42.688;23.330;2023-07-20T06:12:08;27.40;63.50
46562;DHT22;32289;42.688;23.330;2023-07-20T06:15:49;27.00;65.10
46562;DHT22;32289;42.688;23.330;2023-07-20T06:19:30;27.60;65.20
46562;DHT22;32289;42.688;23.330;2023-07-20T06:23:10;27.50;65.70
46562;DHT22;32289;42.688;23.330;2023-07-20T06:26:51;27.50;66.40
46562;DHT22;32289;42.688;23.330;2023-07-20T06:30:33;28.70;63.30
46562;DHT22;32289;42.688;23.330;2023-07-20T06:34:15;28.80;63.90
46562;DHT22;32289;42.688;23.330;2023-07-20T06:37:55;28.50;64.80
46562;DHT22;32289;42.688;23.330;2023-07-20T06:41:36;29.20;60.90
46562;DHT22;32289;42.688;23.330;2023-07-20T06:45:17;29.30;61.40
46562;DHT22;32289;42.688;23.330;2023-07-20T06:48:57;28.80;61.30
46562;DHT22;32289;42.688;23.330;2023-07-20T06:52:38;27.20;65.90
46562;DHT22;32289;42.688;23.330;2023-07-20T06:56:20;28.10;65.40
46562;DHT22;32289;42.688;23.330;2023-07-20T07:00:00;28.80;62.20
46562;DHT22;32289;42.688;23.330;2023-07-20T07:03:41;29.10;62.80
46562;DHT22;32289;42.688;23.330;2023-07-20T07:07:22;30.00;59.00
46562;DHT22;32289;42.688;23.330;2023-07-20T07:11:03;30.10;60.60
46562;DHT22;32289;42.688;23.330;2023-07-20T07:14:43;28.30;63.10
46562;DHT22;32289;42.688;23.330;2023-07-20T07:18:24;27.80;65.80
46562;DHT22;32289;42.688;23.330;2023-07-20T07:22:05;27.60;64.10
46562;DHT22;32289;42.688;23.330;2023-07-20T07:25:46;28.10;63.00
46562;DHT22;32289;42.688;23.330;2023-07-20T07:29:27;29.10;59.90
46562;DHT22;32289;42.688;23.330;2023-07-20T07:33:07;29.50;60.60
46562;DHT22;32289;42.688;23.330;2023-07-20T07:36:49;29.30;60.90
46562;DHT22;32289;42.688;23.330;2023-07-20T07:40:30;30.00;59.00
46562;DHT22;32289;42.688;23.330;2023-07-20T07:44:11;29.70;58.60
46562;DHT22;32289;42.688;23.330;2023-07-20T07:47:52;29.60;58.10
46562;DHT22;32289;42.688;23.330;2023-07-20T07:51:32;30.10;59.50
46562;DHT22;32289;42.688;23.330;2023-07-20T07:55:13;31.60;55.50
46562;DHT22;32289;42.688;23.330;2023-07-20T07:58:57;30.80;57.00
46562;DHT22;32289;42.688;23.330;2023-07-20T08:02:37;31.50;55.70
46562;DHT22;32289;42.688;23.330;2023-07-20T08:06:18;31.70;55.30
46562;DHT22;32289;42.688;23.330;2023-07-20T08:09:59;30.80;55.80
46562;DHT22;32289;42.688;23.330;2023-07-20T08:13:41;30.80;55.70
46562;DHT22;32289;42.688;23.330;2023-07-20T08:17:22;31.10;56.50
46562;DHT22;32289;42.688;23.330;2023-07-20T08:21:02;31.40;56.10
46562;DHT22;32289;42.688;23.330;2023-07-20T08:24:44;32.40;55.50
46562;DHT22;32289;42.688;23.330;2023-07-20T08:28:24;33.00;54.30
46562;DHT22;32289;42.688;23.330;2023-07-20T08:32:07;32.50;54.10
46562;DHT22;32289;42.688;23.330;2023-07-20T08:35:48;32.10;54.30
46562;DHT22;32289;42.688;23.330;2023-07-20T08:39:29;31.70;52.00
46562;DHT22;32289;42.688;23.330;2023-07-20T08:43:14;31.20;51.60
46562;DHT22;32289;42.688;23.330;2023-07-20T08:46:57;32.20;51.80
46562;DHT22;32289;42.688;23.330;2023-07-20T08:50:39;33.00;49.70
46562;DHT22;32289;42.688;23.330;2023-07-20T08:54:21;32.70;49.80
46562;DHT22;32289;42.688;23.330;2023-07-20T08:58:02;33.40;49.00
46562;DHT22;32289;42.688;23.330;2023-07-20T09:01:44;33.60;48.40
46562;DHT22;32289;42.688;23.330;2023-07-20T09:05:26;34.00;49.10
46562;DHT22;32289;42.688;23.330;2023-07-20T09:09:07;34.30;47.30
46562;DHT22;32289;42.688;23.330;2023-07-20T09:12:48;33.50;48.20
46562;DHT22;32289;42.688;23.330;2023-07-20T09:16:29;33.60;46.90
46562;DHT22;32289;42.688;23.330;2023-07-20T09:20:09;34.20;46.20
46562;DHT22;32289;42.688;23.330;2023-07-20T09:23:56;34.00;45.90
46562;DHT22;32289;42.688;23.330;2023-07-20T09:27:42;34.40;46.30
46562;DHT22;32289;42.688;23.330;2023-07-20T09:31:23;35.20;45.60
46562;DHT22;32289;42.688;23.330;2023-07-20T09:35:04;34.70;45.60
46562;DHT22;32289;42.688;23.330;2023-07-20T09:38:45;34.30;45.00
46562;DHT22;32289;42.688;23.330;2023-07-20T09:42:26;34.20;45.70
46562;DHT22;32289;42.688;23.330;2023-07-20T09:46:07;35.00;44.90
46562;DHT22;32289;42.688;23.330;2023-07-20T09:49:48;34.60;44.50
46562;DHT22;32289;42.688;23.330;2023-07-20T09:53:30;34.70;45.00
46562;DHT22;32289;42.688;23.330;2023-07-20T09:57:12;34.90;44.30
46562;DHT22;32289;42.688;23.330;2023-07-20T10:00:56;35.20;43.70
46562;DHT22;32289;42.688;23.330;2023-07-20T10:04:37;33.50;44.30
46562;DHT22;32289;42.688;23.330;2023-07-20T10:08:19;32.30;46.10
46562;DHT22;32289;42.688;23.330;2023-07-20T10:12:01;31.60;49.50
46562;DHT22;32289;42.688;23.330;2023-07-20T10:15:54;31.70;49.70
46562;DHT22;32289;42.688;23.330;2023-07-20T10:19:47;31.80;48.50
46562;DHT22;32289;42.688;23.330;2023-07-20T10:23:31;31.30;48.60
46562;DHT22;32289;42.688;23.330;2023-07-20T10:27:13;31.30;48.80
46562;DHT22;32289;42.688;23.330;2023-07-20T10:30:54;30.90;49.70
46562;DHT22;32289;42.688;23.330;2023-07-20T10:34:35;30.80;50.10
46562;DHT22;32289;42.688;23.330;2023-07-20T10:38:16;31.40;49.20
46562;DHT22;32289;42.688;23.330;2023-07-20T10:42:02;31.30;49.10
46562;DHT22;32289;42.688;23.330;2023-07-20T10:45:49;30.60;49.60
46562;DHT22;32289;42.688;23.330;2023-07-20T10:49:33;30.60;49.70
46562;DHT22;32289;42.688;23.330;2023-07-20T10:53:16;30.00;51.70
46562;DHT22;32289;42.688;23.330;2023-07-20T10:56:59;30.40;57.20
46562;DHT22;32289;42.688;23.330;2023-07-20T11:01:03;31.20;55.20
46562;DHT22;32289;42.688;23.330;2023-07-20T11:04:46;31.50;50.90
46562;DHT22;32289;42.688;23.330;2023-07-20T11:08:43;31.00;50.70
46562;DHT22;32289;42.688;23.330;2023-07-20T11:12:23;31.20;50.90
46562;DHT22;32289;42.688;23.330;2023-07-20T11:16:04;31.80;49.70
46562;DHT22;32289;42.688;23.330;2023-07-20T11:19:48;31.30;51.00
46562;DHT22;32289;42.688;23.330;2023-07-20T11:23:29;31.30;51.70
46562;DHT22;32289;42.688;23.330;2023-07-20T11:27:12;32.00;50.90
46562;DHT22;32289;42.688;23.330;2023-07-20T11:30:53;32.80;49.40
46562;DHT22;32289;42.688;23.330;2023-07-20T11:34:36;32.10;49.40
46562;DHT22;32289;42.688;23.330;2023-07-20T11:38:17;33.10;49.90
46562;DHT22;32289;42.688;23.330;2023-07-20T11:41:58;33.50;48.80
46562;DHT22;32289;42.688;23.330;2023-07-20T11:45:39;33.10;50.50
46562;DHT22;32289;42.688;23.330;2023-07-20T11:49:19;33.20;48.90
46562;DHT22;32289;42.688;23.330;2023-07-20T11:53:00;33.30;48.50
46562;DHT22;32289;42.688;23.330;2023-07-20T11:56:41;33.10;49.00
46562;DHT22;32289;42.688;23.330;2023-07-20T12:00:24;33.10;48.70
46562;DHT22;32289;42.688;23.330;2023-07-20T12:04:05;33.00;48.50
46562;DHT22;32289;42.688;23.330;2023-07-20T12:07:47;33.20;48.60
46562;DHT22;32289;42.688;23.330;2023-07-20T12:11:32;33.80;48.60
46562;DHT22;32289;42.688;23.330;2023-07-20T12:15:13;33.60;47.50
46562;DHT22;32289;42.688;23.330;2023-07-20T12:19:11;33.30;48.30
46562;DHT22;32289;42.688;23.330;2023-07-20T12:22:52;33.00;48.00
46562;DHT22;32289;42.688;23.330;2023-07-20T12:26:34;32.80;47.40
46562;DHT22;32289;42.688;23.330;2023-07-20T12:30:15;33.40;48.00
46562;DHT22;32289;42.688;23.330;2023-07-20T12:33:57;33.00;47.50
46562;DHT22;32289;42.688;23.330;2023-07-20T12:37:39;33.20;47.80
46562;DHT22;32289;42.688;23.330;2023-07-20T12:41:19;33.10;46.50
46562;DHT22;32289;42.688;23.330;2023-07-20T12:45:00;32.90;45.00
46562;DHT22;32289;42.688;23.330;2023-07-20T12:48:41;33.10;45.90
46562;DHT22;32289;42.688;23.330;2023-07-20T12:52:22;32.80;43.30
46562;DHT22;32289;42.688;23.330;2023-07-20T12:56:03;33.20;43.60
46562;DHT22;32289;42.688;23.330;2023-07-20T12:59:44;33.00;44.20
46562;DHT22;32289;42.688;23.330;2023-07-20T13:03:25;33.00;44.80
46562;DHT22;32289;42.688;23.330;2023-07-20T13:07:10;32.60;45.40
46562;DHT22;32289;42.688;23.330;2023-07-20T13:10:52;32.60;45.90
46562;DHT22;32289;42.688;23.330;2023-07-20T13:14:33;32.40;46.00
46562;DHT22;32289;42.688;23.330;2023-07-20T13:18:13;32.60;46.00
46562;DHT22;32289;42.688;23.330;2023-07-20T13:21:55;32.80;46.50
46562;DHT22;32289;42.688;23.330;2023-07-20T13:25:35;32.70;46.20
46562;DHT22;32289;42.688;23.330;2023-07-20T13:29:16;32.30;46.80
46562;DHT22;32289;42.688;23.330;2023-07-20T13:32:57;32.20;47.10
46562;DHT22;32289;42.688;23.330;2023-07-20T13:36:38;32.50;47.10
46562;DHT22;32289;42.688;23.330;2023-07-20T13:40:19;32.00;47.60
46562;DHT22;32289;42.688;23.330;2023-07-20T13:44:00;32.00;48.90
46562;DHT22;32289;42.688;23.330;2023-07-20T13:47:40;32.10;48.80
46562;DHT22;32289;42.688;23.330;2023-07-20T13:51:21;32.40;48.00
46562;DHT22;32289;42.688;23.330;2023-07-20T13:55:02;32.30;48.50
46562;DHT22;32289;42.688;23.330;2023-07-20T13:58:43;31.80;49.20
46562;DHT22;32289;42.688;23.330;2023-07-20T14:02:23;32.00;48.50
46562;DHT22;32289;42.688;23.330;2023-07-20T14:06:04;31.50;46.60
46562;DHT22;32289;42.688;23.330;2023-07-20T14:09:45;31.60;45.90
46562;DHT22;32289;42.688;23.330;2023-07-20T14:13:25;31.70;44.90
46562;DHT22;32289;42.688;23.330;2023-07-20T14:17:06;31.70;44.90
46562;DHT22;32289;42.688;23.330;2023-07-20T14:20:47;31.70;45.70
46562;DHT22;32289;42.688;23.330;2023-07-20T14:24:28;31.70;45.60
46562;DHT22;32289;42.688;23.330;2023-07-20T14:28:08;31.40;46.60
46562;DHT22;32289;42.688;23.330;2023-07-20T14:31:49;31.50;48.10
46562;DHT22;32289;42.688;23.330;2023-07-20T14:35:31;31.40;47.90
46562;DHT22;32289;42.688;23.330;2023-07-20T14:39:11;31.60;47.80
46562;DHT22;32289;42.688;23.330;2023-07-20T14:42:52;31.30;48.70
46562;DHT22;32289;42.688;23.330;2023-07-20T14:51:10;31.10;49.00
46562;DHT22;32289;42.688;23.330;2023-07-20T14:54:51;31.20;49.10
46562;DHT22;32289;42.688;23.330;2023-07-20T14:58:31;30.90;50.30
46562;DHT22;32289;42.688;23.330;2023-07-20T15:06:49;30.60;51.00
46562;DHT22;32289;42.688;23.330;2023-07-20T15:10:30;30.80;51.10
46562;DHT22;32289;42.688;23.330;2023-07-20T15:18:48;30.50;51.40
46562;DHT22;32289;42.688;23.330;2023-07-20T15:22:28;30.40;51.90
46562;DHT22;32289;42.688;23.330;2023-07-20T15:26:09;30.40;51.50
46562;DHT22;32289;42.688;23.330;2023-07-20T15:29:51;30.40;51.10
46562;DHT22;32289;42.688;23.330;2023-07-20T15:33:32;30.30;51.10
46562;DHT22;32289;42.688;23.330;2023-07-20T15:37:13;30.40;50.90
46562;DHT22;32289;42.688;23.330;2023-07-20T15:45:31;30.10;51.10
46562;DHT22;32289;42.688;23.330;2023-07-20T15:49:11;30.20;51.40
46562;DHT22;32289;42.688;23.330;2023-07-20T15:52:52;30.20;51.20
46562;DHT22;32289;42.688;23.330;2023-07-20T16:01:10;30.10;51.10
46562;DHT22;32289;42.688;23.330;2023-07-20T16:04:51;30.00;51.00
46562;DHT22;32289;42.688;23.330;2023-07-20T16:13:02;29.90;51.40
46562;DHT22;32289;42.688;23.330;2023-07-20T16:16:42;30.00;50.80
46562;DHT22;32289;42.688;23.330;2023-07-20T16:25:00;29.80;51.40
46562;DHT22;32289;42.688;23.330;2023-07-20T16:28:41;29.80;50.50
46562;DHT22;32289;42.688;23.330;2023-07-20T16:32:23;29.60;50.10
46562;DHT22;32289;42.688;23.330;2023-07-20T16:36:12;29.40;50.40
46562;DHT22;32289;42.688;23.330;2023-07-20T16:39:52;29.50;50.50
46562;DHT22;32289;42.688;23.330;2023-07-20T16:43:37;29.50;51.10
46562;DHT22;32289;42.688;23.330;2023-07-20T16:51:38;29.40;50.90
46562;DHT22;32289;42.688;23.330;2023-07-20T16:55:19;29.40;51.20
46562;DHT22;32289;42.688;23.330;2023-07-20T17:03:36;29.10;52.30
46562;DHT22;32289;42.688;23.330;2023-07-20T17:07:17;29.00;51.80
46562;DHT22;32289;42.688;23.330;2023-07-20T17:11:35;28.90;52.60
46562;DHT22;32289;42.688;23.330;2023-07-20T17:15:16;28.80;52.40
46562;DHT22;32289;42.688;23.330;2023-07-20T17:18:57;28.70;53.40
46562;DHT22;32289;42.688;23.330;2023-07-20T17:22:38;28.80;53.10
46562;DHT22;32289;42.688;23.330;2023-07-20T17:26:19;28.60;52.60
46562;DHT22;32289;42.688;23.330;2023-07-20T17:30:07;28.60;53.50
46562;DHT22;32289;42.688;23.330;2023-07-20T17:33:48;28.50;54.30
46562;DHT22;32289;42.688;23.330;2023-07-20T17:37:28;28.60;55.20
46562;DHT22;32289;42.688;23.330;2023-07-20T17:41:46;28.60;54.70
46562;DHT22;32289;42.688;23.330;2023-07-20T17:45:27;28.40;55.00
46562;DHT22;32289;42.688;23.330;2023-07-20T17:49:09;28.40;55.10
46562;DHT22;32289;42.688;23.330;2023-07-20T18:06:20;28.10;57.10
46562;DHT22;32289;42.688;23.330;2023-07-20T18:10:02;27.90;57.20
46562;DHT22;32289;42.688;23.330;2023-07-20T18:13:43;27.80;57.20
46562;DHT22;32289;42.688;23.330;2023-07-20T18:17:24;27.70;57.60
46562;DHT22;32289;42.688;23.330;2023-07-20T18:21:07;27.60;57.10
46562;DHT22;32289;42.688;23.330;2023-07-20T18:24:49;27.60;57.40
46562;DHT22;32289;42.688;23.330;2023-07-20T18:28:30;27.40;57.60
46562;DHT22;32289;42.688;23.330;2023-07-20T18:32:10;27.40;59.20
46562;DHT22;32289;42.688;23.330;2023-07-20T18:35:53;27.30;58.10
46562;DHT22;32289;42.688;23.330;2023-07-20T18:39:34;27.20;58.50
46562;DHT22;32289;42.688;23.330;2023-07-20T18:43:15;27.00;59.00
46562;DHT22;32289;42.688;23.330;2023-07-20T18:46:56;26.90;59.80
46562;DHT22;32289;42.688;23.330;2023-07-20T18:50:44;26.90;59.70
46562;DHT22;32289;42.688;23.330;2023-07-20T18:54:25;26.80;60.40
46562;DHT22;32289;42.688;23.330;2023-07-20T18:58:06;26.70;60.80
46562;DHT22;32289;42.688;23.330;2023-07-20T19:01:47;26.80;60.90
46562;DHT22;32289;42.688;23.330;2023-07-20T19:05:28;26.70;61.60
46562;DHT22;32289;42.688;23.330;2023-07-20T19:09:09;26.90;61.60
46562;DHT22;32289;42.688;23.330;2023-07-20T19:12:57;26.80;61.50
46562;DHT22;32289;42.688;23.330;2023-07-20T19:21:09;26.70;62.00
46562;DHT22;32289;42.688;23.330;2023-07-20T19:24:50;26.50;63.10
46562;DHT22;32289;42.688;23.330;2023-07-20T19:28:31;26.30;63.60
46562;DHT22;32289;42.688;23.330;2023-07-20T19:36:42;26.30;64.20
46562;DHT22;32289;42.688;23.330;2023-07-20T19:45:00;26.30;64.50
46562;DHT22;32289;42.688;23.330;2023-07-20T19:48:50;26.30;64.80
46562;DHT22;32289;42.688;23.330;2023-07-20T19:52:31;26.20;65.00
46562;DHT22;32289;42.688;23.330;2023-07-20T19:56:12;26.10;65.40
46562;DHT22;32289;42.688;23.330;2023-07-20T20:04:29;26.00;66.50
46562;DHT22;32289;42.688;23.330;2023-07-20T20:08:10;25.90;67.30
46562;DHT22;32289;42.688;23.330;2023-07-20T20:12:05;25.70;67.10
46562;DHT22;32289;42.688;23.330;2023-07-20T20:20:23;25.60;68.50
46562;DHT22;32289;42.688;23.330;2023-07-20T20:28:42;25.60;68.90
46562;DHT22;32289;42.688;23.330;2023-07-20T20:32:23;25.50;69.30
46562;DHT22;32289;42.688;23.330;2023-07-20T20:36:38;25.40;69.80
46562;DHT22;32289;42.688;23.330;2023-07-20T20:40:20;25.30;70.20
46562;DHT22;32289;42.688;23.330;2023-07-20T20:48:38;25.10;71.00
46562;DHT22;32289;42.688;23.330;2023-07-20T20:52:25;25.00;71.50
46562;DHT22;32289;42.688;23.330;2023-07-20T20:56:05;25.00;71.30
46562;DHT22;32289;42.688;23.330;2023-07-20T20:59:46;24.90;72.10
46562;DHT22;32289;42.688;23.330;2023-07-20T21:03:30;24.80;72.40
46562;DHT22;32289;42.688;23.330;2023-07-20T21:07:11;25.00;72.80
46562;DHT22;32289;42.688;23.330;2023-07-20T21:15:08;24.70;73.60
46562;DHT22;32289;42.688;23.330;2023-07-20T21:18:49;24.60;74.20
46562;DHT22;32289;42.688;23.330;2023-07-20T21:22:29;24.80;73.50
46562;DHT22;32289;42.688;23.330;2023-07-20T21:26:10;24.80;75.30
46562;DHT22;32289;42.688;23.330;2023-07-20T21:29:51;24.70;74.60
46562;DHT22;32289;42.688;23.330;2023-07-20T21:38:09;24.60;75.50
46562;DHT22;32289;42.688;23.330;2023-07-20T21:41:50;24.50;76.40
46562;DHT22;32289;42.688;23.330;2023-07-20T21:45:31;24.50;76.20
46562;DHT22;32289;42.688;23.330;2023-07-20T21:49:12;24.40;76.00
46562;DHT22;32289;42.688;23.330;2023-07-20T21:57:30;24.50;76.20
46562;DHT22;32289;42.688;23.330;2023-07-20T22:01:10;24.50;76.80
46562;DHT22;32289;42.688;23.330;2023-07-20T22:04:58;24.30;77.40
46562;DHT22;32289;42.688;23.330;2023-07-20T22:08:38;24.40;77.30
46562;DHT22;32289;42.688;23.330;2023-07-20T22:12:24;24.20;78.10
46562;DHT22;32289;42.688;23.330;2023-07-20T22:16:05;24.30;78.10
46562;DHT22;32289;42.688;23.330;2023-07-20T22:19:49;24.20;78.20
46562;DHT22;32289;42.688;23.330;2023-07-20T22:23:33;24.20;78.30
46562;DHT22;32289;42.688;23.330;2023-07-20T22:31:52;24.20;77.80
46562;DHT22;32289;42.688;23.330;2023-07-20T22:35:35;24.30;77.80
46562;DHT22;32289;42.688;23.330;2023-07-20T22:39:15;24.20;78.40
46562;DHT22;32289;42.688;23.330;2023-07-20T22:43:27;24.10;78.90
46562;DHT22;32289;42.688;23.330;2023-07-20T22:47:08;24.00;79.80
46562;DHT22;32289;42.688;23.330;2023-07-20T22:50:49;23.90;80.30
46562;DHT22;32289;42.688;23.330;2023-07-20T22:54:32;24.00;80.40
46562;DHT22;32289;42.688;23.330;2023-07-20T23:02:50;23.90;81.50
46562;DHT22;32289;42.688;23.330;2023-07-20T23:06:31;23.70;81.90
46562;DHT22;32289;42.688;23.330;2023-07-20T23:10:11;23.50;83.20
46562;DHT22;32289;42.688;23.330;2023-07-20T23:13:52;23.50;84.20
46562;DHT22;32289;42.688;23.330;2023-07-20T23:17:33;23.30;86.20
46562;DHT22;32289;42.688;23.330;2023-07-20T23:21:13;23.00;87.60
46562;DHT22;32289;42.688;23.330;2023-07-20T23:24:54;22.70;89.20
46562;DHT22;32289;42.688;23.330;2023-07-20T23:28:35;21.90;92.20
46562;DHT22;32289;42.688;23.330;2023-07-20T23:32:16;22.00;92.30
46562;DHT22;32289;42.688;23.330;2023-07-20T23:40:34;21.50;94.60
46562;DHT22;32289;42.688;23.330;2023-07-20T23:44:14;22.00;93.70
46562;DHT22;32289;42.688;23.330;2023-07-20T23:47:55;22.10;92.50
46562;DHT22;32289;42.688;23.330;2023-07-20T23:56:07;22.20;92.40
46562;DHT22;32289;42.688;23.330;2023-07-20T23:59:49;22.20;92.30
